createdAt,value
2023-03-01T00:01:06.058Z,100.00
2023-03-01T00:03:33.374Z,100.00
2023-03-01T00:05:59.950Z,100.00
2023-03-01T00:08:27.242Z,100.00
2023-03-01T00:11:23.077Z,100.00
2023-03-01T00:13:52.062Z,100.00
2023-03-01T00:16:26.443Z,100.00
2023-03-01T00:18:58.395Z,100.00
2023-03-01T00:21:25.861Z,100.00
2023-03-01T00:23:54.470Z,100.00
2023-03-01T00:26:22.593Z,100.00
2023-03-01T00:28:49.550Z,100.00
2023-03-01T00:31:19.194Z,100.00
2023-03-01T00:33:46.103Z,100.00
2023-03-01T00:36:15.350Z,100.00
2023-03-01T00:38:44.452Z,100.00
2023-03-01T00:41:14.189Z,100.00
2023-03-01T00:43:41.251Z,100.00
2023-03-01T00:46:12.058Z,100.00
2023-03-01T00:48:38.584Z,100.00
2023-03-01T00:51:29.239Z,100.00
2023-03-01T00:53:59.441Z,100.00
2023-03-01T00:56:26.289Z,100.00
2023-03-01T00:58:52.781Z,100.00
2023-03-01T01:01:22.645Z,100.00
2023-03-01T01:03:57.948Z,98.91
2023-03-01T01:06:25.802Z,99.42
2023-03-01T01:08:53.941Z,99.04
2023-03-01T01:11:21.463Z,99.47
2023-03-01T01:13:49.134Z,100.00
2023-03-01T01:16:17.145Z,100.00
2023-03-01T01:18:44.098Z,100.00
2023-03-01T01:21:13.332Z,100.00
2023-03-01T01:23:41.560Z,100.00
2023-03-01T01:26:11.100Z,100.00
2023-03-01T01:28:37.832Z,100.00
2023-03-01T01:31:05.644Z,100.00
2023-03-01T01:33:32.561Z,100.00
2023-03-01T01:35:59.081Z,100.00
2023-03-01T01:38:25.966Z,100.00
2023-03-01T01:40:52.471Z,100.00
2023-03-01T01:43:26.026Z,100.00
2023-03-01T01:45:57.894Z,100.00
2023-03-01T01:48:41.461Z,100.00
2023-03-01T01:51:12.487Z,100.00
2023-03-01T01:53:40.921Z,100.00
2023-03-01T01:56:12.121Z,100.00
2023-03-01T01:58:41.613Z,100.00
2023-03-01T02:01:08.466Z,100.00
2023-03-01T02:03:38.495Z,100.00
2023-03-01T02:06:12.450Z,100.00
2023-03-01T02:08:42.251Z,100.00
2023-03-01T02:11:10.660Z,100.00
2023-03-01T02:13:37.661Z,100.00
2023-03-01T02:16:09.279Z,100.00
2023-03-01T02:18:35.763Z,100.00
2023-03-01T02:21:39.937Z,100.00
2023-03-01T02:24:29.861Z,100.00
2023-03-01T02:26:58.068Z,100.00
2023-03-01T02:29:25.303Z,100.00
2023-03-01T02:31:57.532Z,100.00
2023-03-01T02:34:27.895Z,100.00
2023-03-01T02:36:58.369Z,100.00
2023-03-01T02:39:30.034Z,100.00
2023-03-01T02:41:58.650Z,100.00
2023-03-01T02:44:25.677Z,100.00
2023-03-01T02:46:55.240Z,100.00
2023-03-01T02:49:31.619Z,100.00
2023-03-01T02:52:07.396Z,100.00
2023-03-01T02:54:39.926Z,100.00
2023-03-01T02:57:06.778Z,100.00
2023-03-01T02:59:40.174Z,100.00
2023-03-01T03:02:37.028Z,100.00
2023-03-01T03:05:18.819Z,100.00
2023-03-01T03:07:47.505Z,100.00
2023-03-01T03:10:17.161Z,100.00
2023-03-01T03:12:43.627Z,100.00
2023-03-01T03:15:13.477Z,100.00
2023-03-01T03:17:43.046Z,100.00
2023-03-01T03:20:13.056Z,100.00
2023-03-01T03:22:40.854Z,100.00
2023-03-01T03:25:11.752Z,100.00
2023-03-01T03:27:43.854Z,100.00
2023-03-01T03:30:14.626Z,100.00
2023-03-01T03:32:42.483Z,100.00
2023-03-01T03:35:10.946Z,100.00
2023-03-01T03:38:00.099Z,100.00
2023-03-01T03:40:31.638Z,100.00
2023-03-01T03:42:58.349Z,100.00
2023-03-01T03:45:25.207Z,100.00
2023-03-01T03:47:51.758Z,100.00
2023-03-01T03:50:18.971Z,100.00
2023-03-01T03:52:45.693Z,100.00
2023-03-01T03:55:13.192Z,99.93
2023-03-01T03:57:42.971Z,100.00
2023-03-01T04:00:15.893Z,100.00
2023-03-01T04:02:43.510Z,99.45
2023-03-01T04:05:13.321Z,99.82
2023-03-01T04:07:39.939Z,99.66
2023-03-01T04:10:10.168Z,100.00
2023-03-01T04:12:37.026Z,99.98
2023-03-01T04:15:13.594Z,100.00
2023-03-01T04:17:41.266Z,100.00
2023-03-01T04:20:12.928Z,99.62
2023-03-01T04:22:40.298Z,98.56
2023-03-01T04:25:07.877Z,100.00
2023-03-01T04:27:35.521Z,100.00
2023-03-01T04:30:04.004Z,99.34
2023-03-01T04:32:30.734Z,97.83
2023-03-01T04:34:57.193Z,99.97
2023-03-01T04:37:25.006Z,100.00
2023-03-01T04:39:51.553Z,100.00
2023-03-01T04:42:18.774Z,99.72
2023-03-01T04:44:46.137Z,99.83
2023-03-01T04:47:13.575Z,100.00
2023-03-01T04:49:40.018Z,99.66
2023-03-01T04:52:06.665Z,100.00
2023-03-01T04:54:34.822Z,100.00
2023-03-01T04:57:02.894Z,100.00
2023-03-01T04:59:29.980Z,100.00
2023-03-01T05:01:57.060Z,100.00
2023-03-01T05:04:24.515Z,100.00
2023-03-01T05:06:51.130Z,100.00
2023-03-01T05:09:17.778Z,100.00
2023-03-01T05:11:44.535Z,100.00
2023-03-01T05:14:11.939Z,96.65
2023-03-01T05:16:38.523Z,96.24
2023-03-01T05:19:16.052Z,95.42
2023-03-01T05:22:02.726Z,95.90
2023-03-01T05:24:31.522Z,95.48
2023-03-01T05:26:58.019Z,95.23
2023-03-01T05:29:26.832Z,96.12
2023-03-01T05:31:58.896Z,96.05
2023-03-01T05:34:27.246Z,96.26
2023-03-01T05:36:54.664Z,94.77
2023-03-01T05:39:23.371Z,95.19
2023-03-01T05:41:53.884Z,95.70
2023-03-01T05:44:21.196Z,96.89
2023-03-01T05:46:47.792Z,94.97
2023-03-01T05:49:14.954Z,95.12
2023-03-01T05:51:42.517Z,95.13
2023-03-01T05:54:10.383Z,94.16
2023-03-01T05:56:37.605Z,94.80
2023-03-01T05:59:05.950Z,93.58
2023-03-01T06:01:33.805Z,93.84
2023-03-01T06:04:00.255Z,94.73
2023-03-01T06:06:29.020Z,94.73
2023-03-01T06:08:55.861Z,94.18
2023-03-01T06:11:22.671Z,93.15
2023-03-01T06:13:49.179Z,93.73
2023-03-01T06:16:15.757Z,93.34
2023-03-01T06:18:42.352Z,92.14
2023-03-01T06:21:09.158Z,93.34
2023-03-01T06:23:36.232Z,92.35
2023-03-01T06:26:07.471Z,92.58
2023-03-01T06:28:34.299Z,91.59
2023-03-01T06:31:01.026Z,92.42
2023-03-01T06:33:27.453Z,91.88
2023-03-01T06:35:57.453Z,91.33
2023-03-01T06:38:25.047Z,92.50
2023-03-01T06:40:55.745Z,92.46
2023-03-01T06:43:22.772Z,91.96
2023-03-01T06:45:49.255Z,91.66
2023-03-01T06:48:15.714Z,90.29
2023-03-01T06:50:42.277Z,90.27
2023-03-01T06:53:08.794Z,90.38
2023-03-01T06:55:35.250Z,90.30
2023-03-01T06:58:03.517Z,91.16
2023-03-01T07:00:30.805Z,91.61
2023-03-01T07:02:59.898Z,91.91
2023-03-01T07:05:26.348Z,91.86
2023-03-01T07:07:54.891Z,92.02
2023-03-01T07:10:21.498Z,92.69
2023-03-01T07:12:48.063Z,92.12
2023-03-01T07:15:15.921Z,92.65
2023-03-01T07:17:42.413Z,93.82
2023-03-01T07:20:09.704Z,93.87
2023-03-01T07:22:36.165Z,93.71
2023-03-01T07:25:02.725Z,93.04
2023-03-01T07:27:29.214Z,93.86
2023-03-01T07:29:55.636Z,92.59
2023-03-01T07:32:22.156Z,92.64
2023-03-01T07:34:48.760Z,92.96
2023-03-01T07:37:15.314Z,93.10
2023-03-01T07:39:41.761Z,92.86
2023-03-01T07:42:08.392Z,93.23
2023-03-01T07:44:35.544Z,92.64
2023-03-01T07:47:02.022Z,92.71
2023-03-01T07:49:28.498Z,91.64
2023-03-01T07:51:55.086Z,91.73
2023-03-01T07:54:21.838Z,89.94
2023-03-01T07:56:48.440Z,91.38
2023-03-01T07:59:15.058Z,91.26
2023-03-01T08:01:41.582Z,91.44
2023-03-01T08:04:09.453Z,91.15
2023-03-01T08:06:37.203Z,90.37
2023-03-01T08:09:03.854Z,90.09
2023-03-01T08:11:30.292Z,90.60
2023-03-01T08:13:58.305Z,90.31
2023-03-01T08:16:25.115Z,88.66
2023-03-01T08:18:51.682Z,88.10
2023-03-01T08:21:19.429Z,87.84
2023-03-01T08:23:46.095Z,87.07
2023-03-01T08:26:19.480Z,86.14
2023-03-01T08:28:47.162Z,86.29
2023-03-01T08:31:27.156Z,85.46
2023-03-01T08:33:58.731Z,85.74
2023-03-01T08:36:27.506Z,86.46
2023-03-01T08:38:54.564Z,86.17
2023-03-01T08:41:21.612Z,85.78
2023-03-01T08:43:48.195Z,86.85
2023-03-01T08:46:14.819Z,85.87
2023-03-01T08:48:43.925Z,85.86
2023-03-01T08:51:16.972Z,84.85
2023-03-01T08:53:44.164Z,84.72
2023-03-01T08:56:11.979Z,83.81
2023-03-01T08:58:40.772Z,84.22
2023-03-01T09:01:15.868Z,83.47
2023-03-01T09:03:43.550Z,83.71
2023-03-01T09:06:11.079Z,83.51
2023-03-01T09:08:39.423Z,83.59
2023-03-01T09:11:07.778Z,83.47
2023-03-01T09:13:35.296Z,83.41
2023-03-01T09:16:03.910Z,83.32
2023-03-01T09:18:30.539Z,82.39
2023-03-01T09:21:09.273Z,81.99
2023-03-01T09:23:37.642Z,81.33
2023-03-01T09:26:04.355Z,80.95
2023-03-01T09:28:30.823Z,78.76
2023-03-01T09:31:01.862Z,79.20
2023-03-01T09:33:30.179Z,79.09
2023-03-01T09:35:58.847Z,78.24
2023-03-01T09:38:26.024Z,77.33
2023-03-01T09:40:54.438Z,76.48
2023-03-01T09:43:46.605Z,76.02
2023-03-01T09:46:17.604Z,74.86
2023-03-01T09:48:50.004Z,73.61
2023-03-01T09:51:23.372Z,73.52
2023-03-01T09:53:50.167Z,72.21
2023-03-01T09:56:23.341Z,72.13
2023-03-01T09:58:54.708Z,72.20
2023-03-01T10:01:39.464Z,73.29
2023-03-01T10:04:12.377Z,72.06
2023-03-01T10:06:45.462Z,72.38
2023-03-01T10:09:17.101Z,72.34
2023-03-01T10:11:50.868Z,72.70
2023-03-01T10:14:26.160Z,71.33
2023-03-01T10:16:59.743Z,70.49
2023-03-01T10:19:38.667Z,70.42
2023-03-01T10:22:29.521Z,70.18
2023-03-01T10:24:59.520Z,69.36
2023-03-01T10:27:42.681Z,69.06
2023-03-01T10:30:17.143Z,69.59
2023-03-01T10:32:45.246Z,70.51
2023-03-01T10:35:19.557Z,69.19
2023-03-01T10:38:09.026Z,68.98
2023-03-01T10:40:36.990Z,69.15
2023-03-01T10:43:06.770Z,67.81
2023-03-01T10:45:38.897Z,67.68
2023-03-01T10:48:37.658Z,67.07
2023-03-01T10:51:04.035Z,67.52
2023-03-01T10:53:41.480Z,68.45
2023-03-01T10:56:09.417Z,67.09
2023-03-01T10:58:38.863Z,66.61
2023-03-01T11:01:28.129Z,67.41
2023-03-01T11:04:07.052Z,66.36
2023-03-01T11:06:39.002Z,66.82
2023-03-01T11:09:22.236Z,66.73
2023-03-01T11:11:57.091Z,66.05
2023-03-01T11:14:36.638Z,65.87
2023-03-01T11:17:14.729Z,65.99
2023-03-01T11:19:42.529Z,65.07
2023-03-01T11:22:17.507Z,65.56
2023-03-01T11:25:08.968Z,63.95
2023-03-01T11:27:43.149Z,64.42
2023-03-01T11:30:42.522Z,64.26
2023-03-01T11:33:08.942Z,63.57
2023-03-01T11:35:39.034Z,64.97
2023-03-01T11:38:26.371Z,62.86
2023-03-01T11:41:00.943Z,62.60
2023-03-01T11:43:34.699Z,62.29
2023-03-01T11:46:34.138Z,62.06
2023-03-01T11:49:18.645Z,62.06
2023-03-01T11:51:51.120Z,61.97
2023-03-01T11:54:41.003Z,61.06
2023-03-01T11:57:43.464Z,61.11
2023-03-01T12:00:40.624Z,61.21
2023-03-01T12:03:44.375Z,61.04
2023-03-01T12:06:41.459Z,59.76
2023-03-01T12:09:19.920Z,59.69
2023-03-01T12:12:05.135Z,59.53
2023-03-01T12:14:43.656Z,59.61
2023-03-01T12:17:26.069Z,58.58
2023-03-01T12:20:22.873Z,59.04
2023-03-01T12:23:23.444Z,58.60
2023-03-01T12:26:25.607Z,58.41
2023-03-01T12:29:10.589Z,58.27
2023-03-01T12:31:43.232Z,58.23
2023-03-01T12:34:21.071Z,57.32
2023-03-01T12:37:06.388Z,57.34
2023-03-01T12:39:55.500Z,57.18
2023-03-01T12:42:28.169Z,57.30
2023-03-01T12:45:13.071Z,57.55
2023-03-01T12:47:54.856Z,56.85
2023-03-01T12:50:25.154Z,56.25
2023-03-01T12:52:55.998Z,56.45
2023-03-01T12:55:41.403Z,56.23
2023-03-01T12:58:43.691Z,56.38
2023-03-01T13:01:24.989Z,55.72
2023-03-01T13:03:57.279Z,55.61
2023-03-01T13:06:56.898Z,55.35
2023-03-01T13:09:34.693Z,55.49
2023-03-01T13:12:02.923Z,55.45
2023-03-01T13:14:33.796Z,55.84
2023-03-01T13:17:00.321Z,55.48
2023-03-01T13:19:33.324Z,56.38
2023-03-01T13:22:00.292Z,56.12
2023-03-01T13:24:28.489Z,55.77
2023-03-01T13:27:06.852Z,56.33
2023-03-01T13:29:51.888Z,55.97
2023-03-01T13:32:23.473Z,55.90
2023-03-01T13:34:53.674Z,55.16
2023-03-01T13:37:23.835Z,55.70
2023-03-01T13:39:51.101Z,56.02
2023-03-01T13:42:59.369Z,55.71
2023-03-01T13:45:40.417Z,56.32
2023-03-01T13:48:23.407Z,56.58
2023-03-01T13:50:55.532Z,56.27
2023-03-01T13:53:26.275Z,56.66
2023-03-01T13:55:59.905Z,56.51
2023-03-01T13:58:32.322Z,56.16
2023-03-01T14:01:07.854Z,56.19
2023-03-01T14:03:42.583Z,55.25
2023-03-01T14:06:16.210Z,53.69
2023-03-01T14:08:46.374Z,51.37
2023-03-01T14:11:53.266Z,50.54
2023-03-01T14:14:45.408Z,49.55
2023-03-01T14:17:23.787Z,48.39
2023-03-01T14:19:59.694Z,49.34
2023-03-01T14:22:32.971Z,50.07
2023-03-01T14:25:02.102Z,47.88
2023-03-01T14:27:40.320Z,49.03
2023-03-01T14:30:22.284Z,47.87
2023-03-01T14:33:00.833Z,46.31
2023-03-01T14:35:33.914Z,47.64
2023-03-01T14:38:00.509Z,47.11
2023-03-01T14:40:30.435Z,47.27
2023-03-01T14:43:00.605Z,48.00
2023-03-01T14:45:28.989Z,46.37
2023-03-01T14:47:56.987Z,47.88
2023-03-01T14:50:30.354Z,46.85
2023-03-01T14:53:00.442Z,48.18
2023-03-01T14:55:31.619Z,48.76
2023-03-01T14:57:58.837Z,47.05
2023-03-01T15:00:30.880Z,49.47
2023-03-01T15:03:02.743Z,49.38
2023-03-01T15:05:33.781Z,51.02
2023-03-01T15:08:02.898Z,50.31
2023-03-01T15:10:32.942Z,49.62
2023-03-01T15:13:23.003Z,48.11
2023-03-01T15:15:52.155Z,47.49
2023-03-01T15:18:20.657Z,48.25
2023-03-01T15:20:49.393Z,48.54
2023-03-01T15:23:25.286Z,48.78
2023-03-01T15:26:00.108Z,47.54
2023-03-01T15:28:30.356Z,46.69
2023-03-01T15:31:20.926Z,50.12
2023-03-01T15:33:50.302Z,48.68
2023-03-01T15:36:41.598Z,47.67
2023-03-01T15:39:38.231Z,46.71
2023-03-01T15:42:08.260Z,46.17
2023-03-01T15:44:43.423Z,47.22
2023-03-01T15:47:29.027Z,48.42
2023-03-01T15:49:56.923Z,47.47
2023-03-01T15:52:29.938Z,48.03
2023-03-01T15:55:02.395Z,47.80
2023-03-01T15:57:29.066Z,47.80
2023-03-01T15:59:55.589Z,48.70
2023-03-01T16:02:24.955Z,49.35
2023-03-01T16:04:51.615Z,50.79
2023-03-01T16:07:18.593Z,51.78
2023-03-01T16:09:45.153Z,52.34
2023-03-01T16:12:16.664Z,53.15
2023-03-01T16:14:43.720Z,54.01
2023-03-01T16:17:11.139Z,54.71
2023-03-01T16:19:41.961Z,54.51
2023-03-01T16:22:11.108Z,54.79
2023-03-01T16:24:37.505Z,54.96
2023-03-01T16:27:04.678Z,55.25
2023-03-01T16:29:31.241Z,55.58
2023-03-01T16:31:57.715Z,57.06
2023-03-01T16:34:24.439Z,57.26
2023-03-01T16:36:50.874Z,57.56
2023-03-01T16:39:17.671Z,57.81
2023-03-01T16:41:44.422Z,58.11
2023-03-01T16:44:10.919Z,57.99
2023-03-01T16:46:37.487Z,57.58
2023-03-01T16:49:04.208Z,58.41
2023-03-01T16:51:31.962Z,58.50
2023-03-01T16:53:58.671Z,58.64
2023-03-01T16:56:25.250Z,59.32
2023-03-01T16:58:51.683Z,59.43
2023-03-01T17:01:20.948Z,59.16
2023-03-01T17:03:49.513Z,59.79
2023-03-01T17:06:21.133Z,60.00
2023-03-01T17:08:47.581Z,60.17
2023-03-01T17:11:17.297Z,60.23
2023-03-01T17:13:44.621Z,60.35
2023-03-01T17:16:15.100Z,60.94
2023-03-01T17:18:41.613Z,61.35
2023-03-01T17:21:08.501Z,60.96
2023-03-01T17:23:36.607Z,61.32
2023-03-01T17:26:03.709Z,61.70
2023-03-01T17:28:32.694Z,61.82
2023-03-01T17:31:00.814Z,62.29
2023-03-01T17:33:27.446Z,62.64
2023-03-01T17:35:53.965Z,62.75
2023-03-01T17:38:20.425Z,63.40
2023-03-01T17:40:46.895Z,63.91
2023-03-01T17:43:15.483Z,64.31
2023-03-01T17:45:44.580Z,64.77
2023-03-01T17:48:11.152Z,65.54
2023-03-01T17:50:40.326Z,65.67
2023-03-01T17:53:09.945Z,66.30
2023-03-01T17:55:38.243Z,70.06
2023-03-01T17:58:06.031Z,74.02
2023-03-01T18:00:33.034Z,76.48
2023-03-01T18:02:59.599Z,78.07
2023-03-01T18:05:26.277Z,78.63
2023-03-01T18:07:53.948Z,79.18
2023-03-01T18:10:21.077Z,79.31
2023-03-01T18:12:47.541Z,79.02
2023-03-01T18:15:14.150Z,80.21
2023-03-01T18:17:40.746Z,80.74
2023-03-01T18:20:08.059Z,81.08
2023-03-01T18:22:34.652Z,81.10
2023-03-01T18:25:01.118Z,81.61
2023-03-01T18:27:27.633Z,82.04
2023-03-01T18:29:54.809Z,82.15
2023-03-01T18:32:22.084Z,83.27
2023-03-01T18:34:48.596Z,82.89
2023-03-01T18:37:15.569Z,84.74
2023-03-01T18:39:42.272Z,85.41
2023-03-01T18:42:08.773Z,84.41
2023-03-01T18:44:36.376Z,84.41
2023-03-01T18:47:02.803Z,84.69
2023-03-01T18:49:29.496Z,84.96
2023-03-01T18:51:56.560Z,86.34
2023-03-01T18:54:23.075Z,86.68
2023-03-01T18:56:49.591Z,86.51
2023-03-01T18:59:16.134Z,86.00
2023-03-01T19:01:43.227Z,86.43
2023-03-01T19:04:10.941Z,86.30
2023-03-01T19:06:37.779Z,87.21
2023-03-01T19:09:06.550Z,86.57
2023-03-01T19:11:35.284Z,87.46
2023-03-01T19:14:02.412Z,88.49
2023-03-01T19:16:31.313Z,88.82
2023-03-01T19:19:01.158Z,87.84
2023-03-01T19:21:30.910Z,88.12
2023-03-01T19:23:58.449Z,88.59
2023-03-01T19:26:27.143Z,89.79
2023-03-01T19:28:54.799Z,88.70
2023-03-01T19:31:25.630Z,88.52
2023-03-01T19:33:59.477Z,88.13
2023-03-01T19:36:35.079Z,88.51
2023-03-01T19:39:06.355Z,90.08
2023-03-01T19:41:32.896Z,89.26
2023-03-01T19:44:02.621Z,89.40
2023-03-01T19:46:29.362Z,90.12
2023-03-01T19:48:56.612Z,90.48
2023-03-01T19:51:23.061Z,90.44
2023-03-01T19:53:49.597Z,90.17
2023-03-01T19:56:16.090Z,90.10
2023-03-01T19:58:43.243Z,92.07
2023-03-01T20:01:16.096Z,91.66
2023-03-01T20:03:42.904Z,91.63
2023-03-01T20:06:15.488Z,91.14
2023-03-01T20:08:42.570Z,90.87
2023-03-01T20:11:12.102Z,91.60
2023-03-01T20:13:38.558Z,93.27
2023-03-01T20:16:05.887Z,92.77
2023-03-01T20:18:33.172Z,92.74
2023-03-01T20:21:00.086Z,92.91
2023-03-01T20:23:27.005Z,92.56
2023-03-01T20:26:16.297Z,92.49
2023-03-01T20:28:43.077Z,93.79
2023-03-01T20:31:13.460Z,93.59
2023-03-01T20:33:40.303Z,94.24
2023-03-01T20:36:08.633Z,93.28
2023-03-01T20:38:35.942Z,93.32
2023-03-01T20:41:06.049Z,94.03
2023-03-01T20:43:33.480Z,94.15
2023-03-01T20:46:04.702Z,95.43
2023-03-01T20:48:31.214Z,95.56
2023-03-01T20:51:01.493Z,95.77
2023-03-01T20:53:29.188Z,95.61
2023-03-01T20:55:55.630Z,95.57
2023-03-01T20:58:22.067Z,96.83
2023-03-01T21:00:51.859Z,96.99
2023-03-01T21:03:18.356Z,97.07
2023-03-01T21:05:44.737Z,97.21
2023-03-01T21:08:11.251Z,97.03
2023-03-01T21:10:37.716Z,97.25
2023-03-01T21:13:04.142Z,97.36
2023-03-01T21:15:30.536Z,97.30
2023-03-01T21:17:57.110Z,98.12
2023-03-01T21:20:24.481Z,98.11
2023-03-01T21:22:50.927Z,97.81
2023-03-01T21:25:17.341Z,97.17
2023-03-01T21:27:43.766Z,97.74
2023-03-01T21:30:11.039Z,97.86
2023-03-01T21:32:37.460Z,98.57
2023-03-01T21:35:04.061Z,97.81
2023-03-01T21:37:30.547Z,97.95
2023-03-01T21:39:57.319Z,98.60
2023-03-01T21:42:24.047Z,98.45
2023-03-01T21:44:50.458Z,98.24
2023-03-01T21:47:16.925Z,97.88
2023-03-01T21:49:43.325Z,98.34
2023-03-01T21:52:16.603Z,97.68
2023-03-01T21:54:43.775Z,97.47
2023-03-01T21:57:10.796Z,97.71
2023-03-01T21:59:37.376Z,98.53
2023-03-01T22:02:03.869Z,98.30
2023-03-01T22:04:30.309Z,98.79
2023-03-01T22:06:56.807Z,98.93
2023-03-01T22:09:24.535Z,99.28
2023-03-01T22:12:02.413Z,99.40
2023-03-01T22:14:30.827Z,98.86
2023-03-01T22:16:57.952Z,99.42
2023-03-01T22:19:24.511Z,99.64
2023-03-01T22:21:52.744Z,100.00
2023-03-01T22:24:22.911Z,100.00
2023-03-01T22:26:51.108Z,100.00
2023-03-01T22:29:23.933Z,100.00
2023-03-01T22:31:52.891Z,100.00
2023-03-01T22:34:20.577Z,100.00
2023-03-01T22:36:47.940Z,100.00
2023-03-01T22:39:16.431Z,100.00
2023-03-01T22:41:45.573Z,100.00
2023-03-01T22:44:14.690Z,100.00
2023-03-01T22:46:41.910Z,100.00
2023-03-01T22:49:09.796Z,100.00
2023-03-01T22:51:38.081Z,100.00
2023-03-01T22:54:05.415Z,100.00
2023-03-01T22:56:34.848Z,100.00
2023-03-01T22:59:04.735Z,100.00
2023-03-01T23:01:31.849Z,100.00
2023-03-01T23:03:58.530Z,100.00
2023-03-01T23:06:25.248Z,100.00
2023-03-01T23:08:54.400Z,100.00
2023-03-01T23:11:22.101Z,100.00
2023-03-01T23:13:49.209Z,100.00
2023-03-01T23:16:16.854Z,100.00
2023-03-01T23:18:44.164Z,100.00
2023-03-01T23:21:16.520Z,100.00
2023-03-01T23:23:43.406Z,100.00
2023-03-01T23:26:10.025Z,100.00
2023-03-01T23:28:40.332Z,100.00
2023-03-01T23:31:09.822Z,100.00
2023-03-01T23:33:39.392Z,100.00
2023-03-01T23:36:21.352Z,100.00
2023-03-01T23:38:50.046Z,100.00
2023-03-01T23:41:20.439Z,100.00
2023-03-01T23:43:48.522Z,100.00
2023-03-01T23:46:16.536Z,100.00
2023-03-01T23:48:43.969Z,100.00
2023-03-01T23:51:12.241Z,100.00
2023-03-01T23:53:42.699Z,100.00
2023-03-01T23:56:12.195Z,100.00
2023-03-01T23:58:38.840Z,100.00
